sensor_id;sensor_type;location;lat;lon;timestamp;P1;durP1;ratioP1;P2;durP2;ratioP2
41817;SDS011;27493;51.730;5.294;2022-12-18T00:00:29;63.50;;;25.90;;
41817;SDS011;27493;51.730;5.294;2022-12-18T00:02:55;72.30;;;26.07;;
41817;SDS011;27493;51.730;5.294;2022-12-18T00:05:20;60.83;;;25.20;;
41817;SDS011;27493;51.730;5.294;2022-12-18T00:07:45;69.67;;;27.13;;
41817;SDS011;27493;51.730;5.294;2022-12-18T00:10:10;67.97;;;26.17;;
41817;SDS011;27493;51.730;5.294;2022-12-18T00:12:35;62.20;;;24.33;;
41817;SDS011;27493;51.730;5.294;2022-12-18T00:15:00;61.03;;;24.67;;
41817;SDS011;27493;51.730;5.294;2022-12-18T00:17:26;61.33;;;24.23;;
41817;SDS011;27493;51.730;5.294;2022-12-18T00:19:51;62.87;;;24.60;;
41817;SDS011;27493;51.730;5.294;2022-12-18T00:22:17;64.57;;;25.73;;
41817;SDS011;27493;51.730;5.294;2022-12-18T00:24:42;68.80;;;25.50;;
41817;SDS011;27493;51.730;5.294;2022-12-18T00:27:07;67.50;;;25.80;;
41817;SDS011;27493;51.730;5.294;2022-12-18T00:29:33;62.47;;;26.13;;
41817;SDS011;27493;51.730;5.294;2022-12-18T00:31:58;72.47;;;25.87;;
41817;SDS011;27493;51.730;5.294;2022-12-18T00:34:23;60.37;;;24.23;;
41817;SDS011;27493;51.730;5.294;2022-12-18T00:36:48;65.30;;;25.93;;
41817;SDS011;27493;51.730;5.294;2022-12-18T00:39:14;63.97;;;24.73;;
41817;SDS011;27493;51.730;5.294;2022-12-18T00:41:39;58.80;;;23.37;;
41817;SDS011;27493;51.730;5.294;2022-12-18T00:44:23;63.70;;;24.80;;
41817;SDS011;27493;51.730;5.294;2022-12-18T00:46:48;59.77;;;24.77;;
41817;SDS011;27493;51.730;5.294;2022-12-18T00:49:14;63.33;;;24.43;;
41817;SDS011;27493;51.730;5.294;2022-12-18T00:51:40;69.93;;;25.70;;
41817;SDS011;27493;51.730;5.294;2022-12-18T00:54:05;62.63;;;24.10;;
41817;SDS011;27493;51.730;5.294;2022-12-18T00:56:31;62.07;;;24.07;;
41817;SDS011;27493;51.730;5.294;2022-12-18T00:58:56;55.57;;;24.00;;
41817;SDS011;27493;51.730;5.294;2022-12-18T01:01:21;56.03;;;23.17;;
41817;SDS011;27493;51.730;5.294;2022-12-18T01:03:46;63.30;;;25.23;;
41817;SDS011;27493;51.730;5.294;2022-12-18T01:06:13;61.43;;;25.87;;
41817;SDS011;27493;51.730;5.294;2022-12-18T01:08:38;60.30;;;23.37;;
41817;SDS011;27493;51.730;5.294;2022-12-18T01:11:11;60.27;;;23.97;;
41817;SDS011;27493;51.730;5.294;2022-12-18T01:13:36;57.97;;;25.77;;
41817;SDS011;27493;51.730;5.294;2022-12-18T01:16:02;61.70;;;24.20;;
41817;SDS011;27493;51.730;5.294;2022-12-18T01:18:27;67.07;;;24.83;;
41817;SDS011;27493;51.730;5.294;2022-12-18T01:20:52;59.03;;;23.43;;
41817;SDS011;27493;51.730;5.294;2022-12-18T01:23:18;56.73;;;24.17;;
41817;SDS011;27493;51.730;5.294;2022-12-18T01:25:43;58.83;;;23.90;;
41817;SDS011;27493;51.730;5.294;2022-12-18T01:28:08;57.23;;;23.53;;
41817;SDS011;27493;51.730;5.294;2022-12-18T01:30:33;60.13;;;23.43;;
41817;SDS011;27493;51.730;5.294;2022-12-18T01:32:58;56.43;;;23.60;;
41817;SDS011;27493;51.730;5.294;2022-12-18T01:35:23;57.30;;;23.23;;
41817;SDS011;27493;51.730;5.294;2022-12-18T01:37:49;58.63;;;22.67;;
41817;SDS011;27493;51.730;5.294;2022-12-18T01:40:14;59.00;;;23.00;;
41817;SDS011;27493;51.730;5.294;2022-12-18T01:42:39;53.30;;;22.73;;
41817;SDS011;27493;51.730;5.294;2022-12-18T01:47:39;57.37;;;23.17;;
41817;SDS011;27493;51.730;5.294;2022-12-18T01:50:07;50.60;;;21.33;;
41817;SDS011;27493;51.730;5.294;2022-12-18T01:52:33;55.10;;;22.33;;
41817;SDS011;27493;51.730;5.294;2022-12-18T01:54:59;48.90;;;20.73;;
41817;SDS011;27493;51.730;5.294;2022-12-18T01:57:25;53.83;;;21.70;;
41817;SDS011;27493;51.730;5.294;2022-12-18T01:59:52;50.50;;;21.13;;
41817;SDS011;27493;51.730;5.294;2022-12-18T02:02:17;53.17;;;21.77;;
41817;SDS011;27493;51.730;5.294;2022-12-18T02:04:42;46.20;;;20.70;;
41817;SDS011;27493;51.730;5.294;2022-12-18T02:07:13;52.57;;;21.97;;
41817;SDS011;27493;51.730;5.294;2022-12-18T02:10:03;48.57;;;20.03;;
41817;SDS011;27493;51.730;5.294;2022-12-18T02:12:35;41.77;;;18.23;;
41817;SDS011;27493;51.730;5.294;2022-12-18T02:18:08;47.17;;;19.57;;
41817;SDS011;27493;51.730;5.294;2022-12-18T02:20:35;43.80;;;19.37;;
41817;SDS011;27493;51.730;5.294;2022-12-18T02:28:26;43.10;;;19.00;;
41817;SDS011;27493;51.730;5.294;2022-12-18T02:30:53;46.37;;;19.07;;
41817;SDS011;27493;51.730;5.294;2022-12-18T02:33:21;44.03;;;18.87;;
41817;SDS011;27493;51.730;5.294;2022-12-18T02:35:46;48.53;;;20.17;;
41817;SDS011;27493;51.730;5.294;2022-12-18T02:38:12;43.37;;;19.37;;
41817;SDS011;27493;51.730;5.294;2022-12-18T02:40:39;45.13;;;18.60;;
41817;SDS011;27493;51.730;5.294;2022-12-18T02:43:09;40.10;;;18.77;;
41817;SDS011;27493;51.730;5.294;2022-12-18T02:45:34;40.13;;;19.00;;
41817;SDS011;27493;51.730;5.294;2022-12-18T02:47:59;40.73;;;17.67;;
41817;SDS011;27493;51.730;5.294;2022-12-18T02:55:47;41.60;;;18.80;;
41817;SDS011;27493;51.730;5.294;2022-12-18T03:00:43;42.10;;;18.60;;
41817;SDS011;27493;51.730;5.294;2022-12-18T03:03:16;40.03;;;18.23;;
41817;SDS011;27493;51.730;5.294;2022-12-18T03:05:49;39.63;;;17.87;;
41817;SDS011;27493;51.730;5.294;2022-12-18T03:08:20;45.77;;;18.60;;
41817;SDS011;27493;51.730;5.294;2022-12-18T03:10:49;36.67;;;18.13;;
41817;SDS011;27493;51.730;5.294;2022-12-18T03:13:20;41.00;;;17.37;;
41817;SDS011;27493;51.730;5.294;2022-12-18T03:15:49;38.80;;;17.40;;
41817;SDS011;27493;51.730;5.294;2022-12-18T03:18:19;31.60;;;16.43;;
41817;SDS011;27493;51.730;5.294;2022-12-18T03:20:46;41.73;;;18.83;;
41817;SDS011;27493;51.730;5.294;2022-12-18T03:23:14;42.60;;;18.03;;
41817;SDS011;27493;51.730;5.294;2022-12-18T03:25:41;43.83;;;17.57;;
41817;SDS011;27493;51.730;5.294;2022-12-18T03:28:08;40.30;;;19.17;;
41817;SDS011;27493;51.730;5.294;2022-12-18T03:30:34;46.37;;;19.67;;
41817;SDS011;27493;51.730;5.294;2022-12-18T03:35:27;43.57;;;18.60;;
41817;SDS011;27493;51.730;5.294;2022-12-18T03:37:53;38.37;;;17.93;;
41817;SDS011;27493;51.730;5.294;2022-12-18T03:40:20;45.87;;;18.67;;
41817;SDS011;27493;51.730;5.294;2022-12-18T03:42:48;39.53;;;18.47;;
41817;SDS011;27493;51.730;5.294;2022-12-18T03:45:31;39.43;;;18.53;;
41817;SDS011;27493;51.730;5.294;2022-12-18T03:48:10;38.23;;;17.03;;
41817;SDS011;27493;51.730;5.294;2022-12-18T03:55:46;38.30;;;17.20;;
41817;SDS011;27493;51.730;5.294;2022-12-18T03:58:13;42.37;;;18.00;;
41817;SDS011;27493;51.730;5.294;2022-12-18T04:00:40;40.90;;;16.60;;
41817;SDS011;27493;51.730;5.294;2022-12-18T04:03:06;44.33;;;18.37;;
41817;SDS011;27493;51.730;5.294;2022-12-18T04:05:33;36.77;;;17.57;;
41817;SDS011;27493;51.730;5.294;2022-12-18T04:07:59;44.07;;;17.90;;
41817;SDS011;27493;51.730;5.294;2022-12-18T04:10:25;39.57;;;17.23;;
41817;SDS011;27493;51.730;5.294;2022-12-18T04:12:50;35.27;;;16.87;;
41817;SDS011;27493;51.730;5.294;2022-12-18T04:15:15;38.80;;;16.73;;
41817;SDS011;27493;51.730;5.294;2022-12-18T04:17:43;42.30;;;17.70;;
41817;SDS011;27493;51.730;5.294;2022-12-18T04:20:11;33.13;;;16.07;;
41817;SDS011;27493;51.730;5.294;2022-12-18T04:22:36;35.00;;;17.47;;
41817;SDS011;27493;51.730;5.294;2022-12-18T04:25:02;32.73;;;16.37;;
41817;SDS011;27493;51.730;5.294;2022-12-18T04:27:27;40.60;;;17.77;;
41817;SDS011;27493;51.730;5.294;2022-12-18T04:29:52;35.03;;;15.97;;
41817;SDS011;27493;51.730;5.294;2022-12-18T04:32:18;37.77;;;17.53;;
41817;SDS011;27493;51.730;5.294;2022-12-18T04:34:43;33.43;;;16.10;;
41817;SDS011;27493;51.730;5.294;2022-12-18T04:37:08;38.57;;;16.47;;
41817;SDS011;27493;51.730;5.294;2022-12-18T04:39:33;34.60;;;16.63;;
41817;SDS011;27493;51.730;5.294;2022-12-18T04:41:58;33.23;;;15.27;;
41817;SDS011;27493;51.730;5.294;2022-12-18T04:44:25;35.23;;;15.73;;
41817;SDS011;27493;51.730;5.294;2022-12-18T04:46:50;35.97;;;15.87;;
41817;SDS011;27493;51.730;5.294;2022-12-18T04:49:15;33.07;;;15.00;;
41817;SDS011;27493;51.730;5.294;2022-12-18T04:51:40;34.30;;;17.13;;
41817;SDS011;27493;51.730;5.294;2022-12-18T04:54:05;37.13;;;16.50;;
41817;SDS011;27493;51.730;5.294;2022-12-18T04:56:31;33.93;;;15.80;;
41817;SDS011;27493;51.730;5.294;2022-12-18T04:58:56;33.67;;;16.10;;
41817;SDS011;27493;51.730;5.294;2022-12-18T05:01:21;28.97;;;15.10;;
41817;SDS011;27493;51.730;5.294;2022-12-18T05:03:47;30.83;;;15.17;;
41817;SDS011;27493;51.730;5.294;2022-12-18T05:06:12;35.03;;;15.83;;
41817;SDS011;27493;51.730;5.294;2022-12-18T05:08:37;30.97;;;14.83;;
41817;SDS011;27493;51.730;5.294;2022-12-18T05:11:04;34.50;;;15.67;;
41817;SDS011;27493;51.730;5.294;2022-12-18T05:13:29;33.93;;;15.80;;
41817;SDS011;27493;51.730;5.294;2022-12-18T05:15:55;34.13;;;15.63;;
41817;SDS011;27493;51.730;5.294;2022-12-18T05:18:20;32.33;;;15.57;;
41817;SDS011;27493;51.730;5.294;2022-12-18T05:20:46;40.57;;;16.80;;
41817;SDS011;27493;51.730;5.294;2022-12-18T05:23:11;29.23;;;14.80;;
41817;SDS011;27493;51.730;5.294;2022-12-18T05:25:36;30.63;;;15.43;;
41817;SDS011;27493;51.730;5.294;2022-12-18T05:28:01;31.57;;;15.73;;
41817;SDS011;27493;51.730;5.294;2022-12-18T05:30:26;29.83;;;14.23;;
41817;SDS011;27493;51.730;5.294;2022-12-18T05:32:52;33.83;;;14.87;;
41817;SDS011;27493;51.730;5.294;2022-12-18T05:35:18;30.43;;;14.93;;
41817;SDS011;27493;51.730;5.294;2022-12-18T05:37:43;29.90;;;14.10;;
41817;SDS011;27493;51.730;5.294;2022-12-18T05:40:08;34.93;;;15.43;;
41817;SDS011;27493;51.730;5.294;2022-12-18T05:42:34;31.53;;;14.30;;
41817;SDS011;27493;51.730;5.294;2022-12-18T05:44:59;27.97;;;14.60;;
41817;SDS011;27493;51.730;5.294;2022-12-18T05:47:24;31.37;;;15.40;;
41817;SDS011;27493;51.730;5.294;2022-12-18T05:49:49;30.17;;;14.90;;
41817;SDS011;27493;51.730;5.294;2022-12-18T05:52:14;30.13;;;14.83;;
41817;SDS011;27493;51.730;5.294;2022-12-18T05:54:40;27.47;;;14.63;;
41817;SDS011;27493;51.730;5.294;2022-12-18T05:57:05;26.33;;;14.10;;
41817;SDS011;27493;51.730;5.294;2022-12-18T05:59:30;29.57;;;14.73;;
41817;SDS011;27493;51.730;5.294;2022-12-18T06:01:55;28.00;;;14.67;;
41817;SDS011;27493;51.730;5.294;2022-12-18T06:04:20;32.10;;;15.57;;
41817;SDS011;27493;51.730;5.294;2022-12-18T06:06:46;28.77;;;15.23;;
41817;SDS011;27493;51.730;5.294;2022-12-18T06:09:11;29.90;;;15.17;;
41817;SDS011;27493;51.730;5.294;2022-12-18T06:11:36;28.87;;;15.73;;
41817;SDS011;27493;51.730;5.294;2022-12-18T06:14:02;32.13;;;16.63;;
41817;SDS011;27493;51.730;5.294;2022-12-18T06:16:29;30.03;;;15.20;;
41817;SDS011;27493;51.730;5.294;2022-12-18T06:18:58;29.13;;;14.87;;
41817;SDS011;27493;51.730;5.294;2022-12-18T06:21:23;28.00;;;13.80;;
41817;SDS011;27493;51.730;5.294;2022-12-18T06:23:48;30.90;;;15.20;;
41817;SDS011;27493;51.730;5.294;2022-12-18T06:26:14;33.03;;;14.73;;
41817;SDS011;27493;51.730;5.294;2022-12-18T06:28:39;29.50;;;14.47;;
41817;SDS011;27493;51.730;5.294;2022-12-18T06:31:04;26.93;;;13.30;;
41817;SDS011;27493;51.730;5.294;2022-12-18T06:33:30;30.97;;;14.20;;
41817;SDS011;27493;51.730;5.294;2022-12-18T06:36:02;25.73;;;14.27;;
41817;SDS011;27493;51.730;5.294;2022-12-18T06:38:28;25.00;;;13.70;;
41817;SDS011;27493;51.730;5.294;2022-12-18T06:40:53;25.47;;;13.67;;
41817;SDS011;27493;51.730;5.294;2022-12-18T06:43:18;23.27;;;13.53;;
41817;SDS011;27493;51.730;5.294;2022-12-18T06:45:44;30.00;;;12.77;;
41817;SDS011;27493;51.730;5.294;2022-12-18T06:48:09;29.60;;;13.73;;
41817;SDS011;27493;51.730;5.294;2022-12-18T06:50:34;31.70;;;13.80;;
41817;SDS011;27493;51.730;5.294;2022-12-18T06:52:59;24.30;;;12.97;;
41817;SDS011;27493;51.730;5.294;2022-12-18T06:55:24;27.10;;;14.40;;
41817;SDS011;27493;51.730;5.294;2022-12-18T06:57:50;25.83;;;13.10;;
41817;SDS011;27493;51.730;5.294;2022-12-18T07:00:15;29.13;;;13.97;;
41817;SDS011;27493;51.730;5.294;2022-12-18T07:02:40;26.57;;;12.77;;
41817;SDS011;27493;51.730;5.294;2022-12-18T07:05:06;25.30;;;13.17;;
41817;SDS011;27493;51.730;5.294;2022-12-18T07:07:31;24.37;;;12.73;;
41817;SDS011;27493;51.730;5.294;2022-12-18T07:09:58;27.27;;;14.23;;
41817;SDS011;27493;51.730;5.294;2022-12-18T07:12:23;24.50;;;13.00;;
41817;SDS011;27493;51.730;5.294;2022-12-18T07:14:48;25.83;;;13.40;;
41817;SDS011;27493;51.730;5.294;2022-12-18T07:17:13;25.93;;;13.63;;
41817;SDS011;27493;51.730;5.294;2022-12-18T07:19:38;26.53;;;13.13;;
41817;SDS011;27493;51.730;5.294;2022-12-18T07:22:03;25.63;;;14.03;;
41817;SDS011;27493;51.730;5.294;2022-12-18T07:24:29;25.50;;;12.90;;
41817;SDS011;27493;51.730;5.294;2022-12-18T07:26:54;26.53;;;13.43;;
41817;SDS011;27493;51.730;5.294;2022-12-18T07:29:19;28.03;;;13.80;;
41817;SDS011;27493;51.730;5.294;2022-12-18T07:31:44;26.27;;;13.40;;
41817;SDS011;27493;51.730;5.294;2022-12-18T07:34:13;27.40;;;14.40;;
41817;SDS011;27493;51.730;5.294;2022-12-18T07:36:38;27.83;;;13.60;;
41817;SDS011;27493;51.730;5.294;2022-12-18T07:39:03;26.20;;;13.73;;
41817;SDS011;27493;51.730;5.294;2022-12-18T07:41:29;26.60;;;13.07;;
41817;SDS011;27493;51.730;5.294;2022-12-18T07:43:54;31.33;;;14.47;;
41817;SDS011;27493;51.730;5.294;2022-12-18T07:46:19;26.73;;;14.23;;
41817;SDS011;27493;51.730;5.294;2022-12-18T07:48:44;27.40;;;14.87;;
41817;SDS011;27493;51.730;5.294;2022-12-18T07:51:09;27.17;;;13.77;;
41817;SDS011;27493;51.730;5.294;2022-12-18T07:53:35;29.70;;;14.70;;
41817;SDS011;27493;51.730;5.294;2022-12-18T07:56:05;27.23;;;13.97;;
41817;SDS011;27493;51.730;5.294;2022-12-18T07:58:31;25.83;;;13.17;;
41817;SDS011;27493;51.730;5.294;2022-12-18T08:01:06;25.40;;;13.23;;
41817;SDS011;27493;51.730;5.294;2022-12-18T08:03:32;28.60;;;13.87;;
41817;SDS011;27493;51.730;5.294;2022-12-18T08:05:58;26.50;;;13.93;;
41817;SDS011;27493;51.730;5.294;2022-12-18T08:08:23;27.03;;;14.00;;
41817;SDS011;27493;51.730;5.294;2022-12-18T08:10:48;27.93;;;14.03;;
41817;SDS011;27493;51.730;5.294;2022-12-18T08:13:14;25.67;;;13.13;;
41817;SDS011;27493;51.730;5.294;2022-12-18T08:15:39;27.40;;;14.50;;
41817;SDS011;27493;51.730;5.294;2022-12-18T08:18:04;26.97;;;13.83;;
41817;SDS011;27493;51.730;5.294;2022-12-18T08:20:29;27.17;;;13.73;;
41817;SDS011;27493;51.730;5.294;2022-12-18T08:22:54;29.03;;;14.03;;
41817;SDS011;27493;51.730;5.294;2022-12-18T08:25:19;24.93;;;12.97;;
41817;SDS011;27493;51.730;5.294;2022-12-18T08:27:45;24.57;;;14.07;;
41817;SDS011;27493;51.730;5.294;2022-12-18T08:30:10;27.07;;;13.33;;
41817;SDS011;27493;51.730;5.294;2022-12-18T08:32:35;29.53;;;13.87;;
41817;SDS011;27493;51.730;5.294;2022-12-18T08:35:01;29.77;;;14.47;;
41817;SDS011;27493;51.730;5.294;2022-12-18T08:37:26;28.27;;;14.63;;
41817;SDS011;27493;51.730;5.294;2022-12-18T08:39:51;28.67;;;13.83;;
41817;SDS011;27493;51.730;5.294;2022-12-18T08:42:16;24.57;;;12.60;;
41817;SDS011;27493;51.730;5.294;2022-12-18T08:45:02;24.07;;;12.27;;
41817;SDS011;27493;51.730;5.294;2022-12-18T08:47:27;25.47;;;13.50;;
41817;SDS011;27493;51.730;5.294;2022-12-18T08:49:52;28.20;;;13.73;;
41817;SDS011;27493;51.730;5.294;2022-12-18T08:52:17;29.93;;;13.70;;
41817;SDS011;27493;51.730;5.294;2022-12-18T08:54:43;29.43;;;14.73;;
41817;SDS011;27493;51.730;5.294;2022-12-18T08:57:08;28.33;;;14.10;;
41817;SDS011;27493;51.730;5.294;2022-12-18T08:59:33;31.60;;;14.63;;
41817;SDS011;27493;51.730;5.294;2022-12-18T09:01:58;29.73;;;14.70;;
41817;SDS011;27493;51.730;5.294;2022-12-18T09:04:24;27.90;;;14.70;;
41817;SDS011;27493;51.730;5.294;2022-12-18T09:06:49;26.43;;;13.73;;
41817;SDS011;27493;51.730;5.294;2022-12-18T09:09:14;25.97;;;13.50;;
41817;SDS011;27493;51.730;5.294;2022-12-18T09:11:39;24.57;;;14.37;;
41817;SDS011;27493;51.730;5.294;2022-12-18T09:14:05;27.73;;;13.80;;
41817;SDS011;27493;51.730;5.294;2022-12-18T09:16:30;29.30;;;13.80;;
41817;SDS011;27493;51.730;5.294;2022-12-18T09:18:56;28.47;;;13.50;;
41817;SDS011;27493;51.730;5.294;2022-12-18T09:21:24;26.50;;;13.90;;
41817;SDS011;27493;51.730;5.294;2022-12-18T09:23:50;26.40;;;13.17;;
41817;SDS011;27493;51.730;5.294;2022-12-18T09:26:15;28.97;;;13.50;;
41817;SDS011;27493;51.730;5.294;2022-12-18T09:28:41;25.93;;;14.20;;
41817;SDS011;27493;51.730;5.294;2022-12-18T09:31:06;25.13;;;13.93;;
41817;SDS011;27493;51.730;5.294;2022-12-18T09:33:32;21.97;;;12.80;;
41817;SDS011;27493;51.730;5.294;2022-12-18T09:35:57;24.60;;;13.07;;
41817;SDS011;27493;51.730;5.294;2022-12-18T09:38:22;26.50;;;14.17;;
41817;SDS011;27493;51.730;5.294;2022-12-18T09:40:52;24.13;;;12.93;;
41817;SDS011;27493;51.730;5.294;2022-12-18T09:46:26;24.47;;;13.17;;
41817;SDS011;27493;51.730;5.294;2022-12-18T09:48:52;25.47;;;13.33;;
41817;SDS011;27493;51.730;5.294;2022-12-18T09:51:20;25.00;;;13.23;;
41817;SDS011;27493;51.730;5.294;2022-12-18T09:53:50;23.77;;;12.93;;
41817;SDS011;27493;51.730;5.294;2022-12-18T09:56:17;24.43;;;13.43;;
41817;SDS011;27493;51.730;5.294;2022-12-18T09:58:45;26.33;;;14.20;;
41817;SDS011;27493;51.730;5.294;2022-12-18T10:01:18;24.00;;;13.97;;
41817;SDS011;27493;51.730;5.294;2022-12-18T10:03:44;23.87;;;13.60;;
41817;SDS011;27493;51.730;5.294;2022-12-18T10:06:24;27.27;;;13.67;;
41817;SDS011;27493;51.730;5.294;2022-12-18T10:11:34;24.23;;;13.17;;
41817;SDS011;27493;51.730;5.294;2022-12-18T10:21:51;26.40;;;13.80;;
41817;SDS011;27493;51.730;5.294;2022-12-18T10:26:43;21.33;;;12.70;;
41817;SDS011;27493;51.730;5.294;2022-12-18T10:29:13;24.73;;;13.40;;
41817;SDS011;27493;51.730;5.294;2022-12-18T10:31:39;26.27;;;13.70;;
41817;SDS011;27493;51.730;5.294;2022-12-18T10:34:04;26.80;;;13.60;;
41817;SDS011;27493;51.730;5.294;2022-12-18T10:36:29;23.47;;;13.07;;
41817;SDS011;27493;51.730;5.294;2022-12-18T10:38:58;25.30;;;13.93;;
41817;SDS011;27493;51.730;5.294;2022-12-18T10:41:38;25.37;;;12.33;;
41817;SDS011;27493;51.730;5.294;2022-12-18T10:44:11;27.87;;;12.90;;
41817;SDS011;27493;51.730;5.294;2022-12-18T10:46:36;24.07;;;13.57;;
41817;SDS011;27493;51.730;5.294;2022-12-18T10:49:01;22.87;;;12.37;;
41817;SDS011;27493;51.730;5.294;2022-12-18T10:51:31;23.43;;;13.47;;
41817;SDS011;27493;51.730;5.294;2022-12-18T10:56:24;24.60;;;14.67;;
41817;SDS011;27493;51.730;5.294;2022-12-18T10:59:00;25.43;;;13.73;;
41817;SDS011;27493;51.730;5.294;2022-12-18T11:01:25;26.60;;;14.37;;
41817;SDS011;27493;51.730;5.294;2022-12-18T11:06:20;25.60;;;13.47;;
41817;SDS011;27493;51.730;5.294;2022-12-18T11:09:04;27.67;;;13.80;;
41817;SDS011;27493;51.730;5.294;2022-12-18T11:11:31;26.10;;;13.03;;
41817;SDS011;27493;51.730;5.294;2022-12-18T11:14:04;27.57;;;13.93;;
41817;SDS011;27493;51.730;5.294;2022-12-18T11:16:32;24.87;;;13.67;;
41817;SDS011;27493;51.730;5.294;2022-12-18T11:19:21;27.13;;;15.10;;
41817;SDS011;27493;51.730;5.294;2022-12-18T11:21:43;23.63;;;14.07;;
41817;SDS011;27493;51.730;5.294;2022-12-18T11:26:49;25.57;;;13.80;;
41817;SDS011;27493;51.730;5.294;2022-12-18T11:29:19;23.40;;;13.67;;
41817;SDS011;27493;51.730;5.294;2022-12-18T11:31:47;20.33;;;12.53;;
41817;SDS011;27493;51.730;5.294;2022-12-18T11:34:28;24.57;;;13.30;;
41817;SDS011;27493;51.730;5.294;2022-12-18T11:36:55;25.17;;;13.07;;
41817;SDS011;27493;51.730;5.294;2022-12-18T11:39:31;22.27;;;13.60;;
41817;SDS011;27493;51.730;5.294;2022-12-18T11:42:00;25.03;;;13.67;;
41817;SDS011;27493;51.730;5.294;2022-12-18T11:47:15;26.03;;;14.50;;
41817;SDS011;27493;51.730;5.294;2022-12-18T11:49:41;24.67;;;13.43;;
41817;SDS011;27493;51.730;5.294;2022-12-18T11:52:18;26.00;;;14.07;;
41817;SDS011;27493;51.730;5.294;2022-12-18T11:54:44;22.90;;;13.50;;
41817;SDS011;27493;51.730;5.294;2022-12-18T12:07:18;26.88;;;13.77;;
41817;SDS011;27493;51.730;5.294;2022-12-18T12:14:48;23.77;;;12.75;;
41817;SDS011;27493;51.730;5.294;2022-12-18T12:20:18;26.33;;;14.83;;
41817;SDS011;27493;51.730;5.294;2022-12-18T12:22:49;25.93;;;14.07;;
41817;SDS011;27493;51.730;5.294;2022-12-18T12:25:35;27.87;;;13.70;;
41817;SDS011;27493;51.730;5.294;2022-12-18T12:33:14;29.53;;;14.20;;
41817;SDS011;27493;51.730;5.294;2022-12-18T12:38:16;21.73;;;12.60;;
41817;SDS011;27493;51.730;5.294;2022-12-18T12:40:51;24.50;;;13.50;;
41817;SDS011;27493;51.730;5.294;2022-12-18T12:43:22;22.90;;;12.03;;
41817;SDS011;27493;51.730;5.294;2022-12-18T12:45:56;25.93;;;14.47;;
41817;SDS011;27493;51.730;5.294;2022-12-18T12:51:08;25.30;;;14.17;;
41817;SDS011;27493;51.730;5.294;2022-12-18T12:53:35;24.20;;;13.47;;
41817;SDS011;27493;51.730;5.294;2022-12-18T12:56:01;26.63;;;14.60;;
41817;SDS011;27493;51.730;5.294;2022-12-18T12:58:41;26.73;;;14.53;;
41817;SDS011;27493;51.730;5.294;2022-12-18T13:01:13;25.53;;;14.43;;
41817;SDS011;27493;51.730;5.294;2022-12-18T13:03:46;23.93;;;14.20;;
41817;SDS011;27493;51.730;5.294;2022-12-18T13:07:00;27.13;;;14.17;;
41817;SDS011;27493;51.730;5.294;2022-12-18T13:09:00;24.80;;;14.07;;
41817;SDS011;27493;51.730;5.294;2022-12-18T13:11:30;29.73;;;15.03;;
41817;SDS011;27493;51.730;5.294;2022-12-18T13:14:24;23.63;;;13.47;;
41817;SDS011;27493;51.730;5.294;2022-12-18T13:16:51;23.33;;;14.23;;
41817;SDS011;27493;51.730;5.294;2022-12-18T13:19:22;26.87;;;14.60;;
41817;SDS011;27493;51.730;5.294;2022-12-18T13:21:53;25.57;;;14.27;;
41817;SDS011;27493;51.730;5.294;2022-12-18T13:24:26;24.03;;;14.13;;
41817;SDS011;27493;51.730;5.294;2022-12-18T13:26:51;26.33;;;14.13;;
41817;SDS011;27493;51.730;5.294;2022-12-18T13:29:39;27.43;;;14.77;;
41817;SDS011;27493;51.730;5.294;2022-12-18T13:32:24;26.83;;;13.97;;
41817;SDS011;27493;51.730;5.294;2022-12-18T13:37:41;23.17;;;13.60;;
41817;SDS011;27493;51.730;5.294;2022-12-18T13:42:51;24.17;;;14.50;;
41817;SDS011;27493;51.730;5.294;2022-12-18T13:45:36;26.50;;;14.43;;
41817;SDS011;27493;51.730;5.294;2022-12-18T13:48:02;28.17;;;14.40;;
41817;SDS011;27493;51.730;5.294;2022-12-18T13:50:28;26.57;;;13.97;;
41817;SDS011;27493;51.730;5.294;2022-12-18T13:52:53;26.77;;;14.00;;
41817;SDS011;27493;51.730;5.294;2022-12-18T13:55:19;22.50;;;13.53;;
41817;SDS011;27493;51.730;5.294;2022-12-18T13:57:44;25.40;;;13.77;;
41817;SDS011;27493;51.730;5.294;2022-12-18T14:00:23;30.10;;;15.37;;
41817;SDS011;27493;51.730;5.294;2022-12-18T14:02:49;25.53;;;14.67;;
41817;SDS011;27493;51.730;5.294;2022-12-18T14:05:28;26.33;;;14.20;;
41817;SDS011;27493;51.730;5.294;2022-12-18T14:07:55;24.87;;;14.40;;
41817;SDS011;27493;51.730;5.294;2022-12-18T14:10:20;28.43;;;14.27;;
41817;SDS011;27493;51.730;5.294;2022-12-18T14:12:49;27.30;;;14.10;;
41817;SDS011;27493;51.730;5.294;2022-12-18T14:17:57;25.67;;;14.37;;
41817;SDS011;27493;51.730;5.294;2022-12-18T14:20:24;25.43;;;14.67;;
41817;SDS011;27493;51.730;5.294;2022-12-18T14:22:49;24.17;;;14.13;;
41817;SDS011;27493;51.730;5.294;2022-12-18T14:27:44;23.98;;;13.63;;
41817;SDS011;27493;51.730;5.294;2022-12-18T14:30:52;25.53;;;14.27;;
41817;SDS011;27493;51.730;5.294;2022-12-18T14:35:26;26.00;;;14.90;;
41817;SDS011;27493;51.730;5.294;2022-12-18T14:37:52;28.83;;;15.33;;
41817;SDS011;27493;51.730;5.294;2022-12-18T14:40:17;24.90;;;14.60;;
41817;SDS011;27493;51.730;5.294;2022-12-18T14:42:42;26.87;;;15.53;;
41817;SDS011;27493;51.730;5.294;2022-12-18T14:47:51;27.87;;;15.00;;
41817;SDS011;27493;51.730;5.294;2022-12-18T14:50:16;29.00;;;14.70;;
41817;SDS011;27493;51.730;5.294;2022-12-18T14:52:41;27.60;;;15.37;;
41817;SDS011;27493;51.730;5.294;2022-12-18T14:55:14;27.50;;;15.23;;
41817;SDS011;27493;51.730;5.294;2022-12-18T14:57:39;26.00;;;13.20;;
41817;SDS011;27493;51.730;5.294;2022-12-18T15:00:15;28.13;;;14.87;;
41817;SDS011;27493;51.730;5.294;2022-12-18T15:02:41;25.17;;;14.93;;
41817;SDS011;27493;51.730;5.294;2022-12-18T15:07:42;29.07;;;14.87;;
41817;SDS011;27493;51.730;5.294;2022-12-18T15:15:00;28.20;;;15.37;;
41817;SDS011;27493;51.730;5.294;2022-12-18T15:17:25;26.43;;;15.03;;
41817;SDS011;27493;51.730;5.294;2022-12-18T15:19:52;29.33;;;15.77;;
41817;SDS011;27493;51.730;5.294;2022-12-18T15:22:22;27.80;;;15.13;;
41817;SDS011;27493;51.730;5.294;2022-12-18T15:24:49;28.27;;;15.73;;
41817;SDS011;27493;51.730;5.294;2022-12-18T15:27:25;29.43;;;14.83;;
41817;SDS011;27493;51.730;5.294;2022-12-18T15:32:31;23.90;;;13.73;;
41817;SDS011;27493;51.730;5.294;2022-12-18T15:35:30;32.20;;;15.50;;
41817;SDS011;27493;51.730;5.294;2022-12-18T15:37:48;30.13;;;16.13;;
41817;SDS011;27493;51.730;5.294;2022-12-18T15:40:14;26.13;;;15.40;;
41817;SDS011;27493;51.730;5.294;2022-12-18T15:42:40;28.13;;;15.87;;
41817;SDS011;27493;51.730;5.294;2022-12-18T15:45:24;31.57;;;16.30;;
41817;SDS011;27493;51.730;5.294;2022-12-18T15:47:49;30.63;;;16.33;;
41817;SDS011;27493;51.730;5.294;2022-12-18T15:50:14;31.60;;;16.00;;
41817;SDS011;27493;51.730;5.294;2022-12-18T15:52:41;31.00;;;15.87;;
41817;SDS011;27493;51.730;5.294;2022-12-18T15:55:13;26.90;;;16.27;;
41817;SDS011;27493;51.730;5.294;2022-12-18T15:57:57;29.63;;;15.60;;
41817;SDS011;27493;51.730;5.294;2022-12-18T16:00:23;32.63;;;16.37;;
41817;SDS011;27493;51.730;5.294;2022-12-18T16:02:48;29.40;;;16.77;;
41817;SDS011;27493;51.730;5.294;2022-12-18T16:05:14;27.33;;;14.57;;
41817;SDS011;27493;51.730;5.294;2022-12-18T16:07:39;27.97;;;15.10;;
41817;SDS011;27493;51.730;5.294;2022-12-18T16:10:05;27.07;;;15.57;;